sensor_id;sensor_type;location;lat;lon;timestamp;P1;durP1;ratioP1;P2;durP2;ratioP2
54735;SDS011;40632;51.442;11.936;2022-10-22T00:00:24;5.90;;;4.32;;
54735;SDS011;40632;51.442;11.936;2022-10-22T00:02:49;6.30;;;4.43;;
54735;SDS011;40632;51.442;11.936;2022-10-22T00:05:15;5.10;;;4.60;;
54735;SDS011;40632;51.442;11.936;2022-10-22T00:07:43;4.80;;;4.30;;
54735;SDS011;40632;51.442;11.936;2022-10-22T00:10:09;4.82;;;4.10;;
54735;SDS011;40632;51.442;11.936;2022-10-22T00:12:35;7.60;;;4.40;;
54735;SDS011;40632;51.442;11.936;2022-10-22T00:15:01;6.15;;;4.57;;
54735;SDS011;40632;51.442;11.936;2022-10-22T00:17:26;7.10;;;4.75;;
54735;SDS011;40632;51.442;11.936;2022-10-22T00:19:52;8.15;;;5.68;;
54735;SDS011;40632;51.442;11.936;2022-10-22T00:22:17;5.93;;;5.32;;
54735;SDS011;40632;51.442;11.936;2022-10-22T00:24:46;9.88;;;5.60;;
54735;SDS011;40632;51.442;11.936;2022-10-22T00:27:11;6.30;;;5.60;;
54735;SDS011;40632;51.442;11.936;2022-10-22T00:29:38;8.45;;;6.03;;
54735;SDS011;40632;51.442;11.936;2022-10-22T00:32:04;7.28;;;6.30;;
54735;SDS011;40632;51.442;11.936;2022-10-22T00:34:31;8.40;;;7.53;;
54735;SDS011;40632;51.442;11.936;2022-10-22T00:36:56;10.43;;;7.00;;
54735;SDS011;40632;51.442;11.936;2022-10-22T00:39:23;9.65;;;8.07;;
54735;SDS011;40632;51.442;11.936;2022-10-22T00:41:53;9.77;;;7.88;;
54735;SDS011;40632;51.442;11.936;2022-10-22T00:47:16;10.00;;;8.70;;
54735;SDS011;40632;51.442;11.936;2022-10-22T00:49:44;12.43;;;8.68;;
54735;SDS011;40632;51.442;11.936;2022-10-22T00:52:11;9.85;;;8.85;;
54735;SDS011;40632;51.442;11.936;2022-10-22T00:54:37;11.05;;;9.35;;
54735;SDS011;40632;51.442;11.936;2022-10-22T00:57:06;14.82;;;10.18;;
54735;SDS011;40632;51.442;11.936;2022-10-22T00:59:32;12.45;;;9.35;;
54735;SDS011;40632;51.442;11.936;2022-10-22T01:01:59;11.02;;;9.65;;
54735;SDS011;40632;51.442;11.936;2022-10-22T01:04:24;10.77;;;9.45;;
54735;SDS011;40632;51.442;11.936;2022-10-22T01:06:50;11.98;;;9.02;;
54735;SDS011;40632;51.442;11.936;2022-10-22T01:09:18;10.80;;;9.10;;
54735;SDS011;40632;51.442;11.936;2022-10-22T01:11:51;13.07;;;8.38;;
54735;SDS011;40632;51.442;11.936;2022-10-22T01:14:27;11.73;;;8.32;;
54735;SDS011;40632;51.442;11.936;2022-10-22T01:17:02;12.35;;;8.10;;
54735;SDS011;40632;51.442;11.936;2022-10-22T01:19:40;8.75;;;7.50;;
54735;SDS011;40632;51.442;11.936;2022-10-22T01:22:15;8.57;;;7.00;;
54735;SDS011;40632;51.442;11.936;2022-10-22T01:24:52;7.47;;;6.30;;
54735;SDS011;40632;51.442;11.936;2022-10-22T01:27:32;7.05;;;6.32;;
54735;SDS011;40632;51.442;11.936;2022-10-22T01:30:10;7.40;;;6.10;;
54735;SDS011;40632;51.442;11.936;2022-10-22T01:32:38;8.30;;;6.28;;
54735;SDS011;40632;51.442;11.936;2022-10-22T01:35:08;9.18;;;6.40;;
54735;SDS011;40632;51.442;11.936;2022-10-22T01:37:37;10.25;;;7.10;;
54735;SDS011;40632;51.442;11.936;2022-10-22T01:40:07;7.60;;;6.60;;
54735;SDS011;40632;51.442;11.936;2022-10-22T01:42:35;9.60;;;7.07;;
54735;SDS011;40632;51.442;11.936;2022-10-22T01:45:04;11.98;;;7.07;;
54735;SDS011;40632;51.442;11.936;2022-10-22T01:47:39;8.10;;;7.32;;
54735;SDS011;40632;51.442;11.936;2022-10-22T01:50:22;8.02;;;7.22;;
54735;SDS011;40632;51.442;11.936;2022-10-22T01:52:59;8.20;;;6.95;;
54735;SDS011;40632;51.442;11.936;2022-10-22T01:55:42;12.77;;;6.85;;
54735;SDS011;40632;51.442;11.936;2022-10-22T01:58:21;7.68;;;6.57;;
54735;SDS011;40632;51.442;11.936;2022-10-22T02:01:08;10.98;;;6.90;;
54735;SDS011;40632;51.442;11.936;2022-10-22T02:03:43;7.30;;;5.95;;
54735;SDS011;40632;51.442;11.936;2022-10-22T02:06:16;10.35;;;6.05;;
54735;SDS011;40632;51.442;11.936;2022-10-22T02:08:44;10.75;;;6.18;;
54735;SDS011;40632;51.442;11.936;2022-10-22T02:11:12;8.88;;;5.72;;
54735;SDS011;40632;51.442;11.936;2022-10-22T02:13:40;7.18;;;5.88;;
54735;SDS011;40632;51.442;11.936;2022-10-22T02:16:12;7.63;;;6.10;;
54735;SDS011;40632;51.442;11.936;2022-10-22T02:18:42;6.25;;;5.68;;
54735;SDS011;40632;51.442;11.936;2022-10-22T02:21:10;7.95;;;5.82;;
54735;SDS011;40632;51.442;11.936;2022-10-22T02:23:36;7.65;;;5.88;;
54735;SDS011;40632;51.442;11.936;2022-10-22T02:26:05;6.80;;;5.93;;
54735;SDS011;40632;51.442;11.936;2022-10-22T02:28:35;7.68;;;6.00;;
54735;SDS011;40632;51.442;11.936;2022-10-22T02:31:08;11.88;;;6.03;;
54735;SDS011;40632;51.442;11.936;2022-10-22T02:36:08;7.88;;;6.13;;
54735;SDS011;40632;51.442;11.936;2022-10-22T02:38:35;8.90;;;6.25;;
54735;SDS011;40632;51.442;11.936;2022-10-22T02:41:01;7.72;;;6.65;;
54735;SDS011;40632;51.442;11.936;2022-10-22T02:43:27;10.05;;;6.78;;
54735;SDS011;40632;51.442;11.936;2022-10-22T02:45:53;11.82;;;6.53;;
54735;SDS011;40632;51.442;11.936;2022-10-22T02:48:21;8.27;;;6.68;;
54735;SDS011;40632;51.442;11.936;2022-10-22T02:50:46;11.20;;;7.18;;
54735;SDS011;40632;51.442;11.936;2022-10-22T02:53:12;8.82;;;7.75;;
54735;SDS011;40632;51.442;11.936;2022-10-22T02:55:38;11.45;;;7.63;;
54735;SDS011;40632;51.442;11.936;2022-10-22T02:58:03;9.05;;;8.15;;
54735;SDS011;40632;51.442;11.936;2022-10-22T03:00:29;10.73;;;8.65;;
54735;SDS011;40632;51.442;11.936;2022-10-22T03:02:54;10.85;;;8.00;;
54735;SDS011;40632;51.442;11.936;2022-10-22T03:05:23;9.55;;;7.82;;
54735;SDS011;40632;51.442;11.936;2022-10-22T03:07:48;11.07;;;7.57;;
54735;SDS011;40632;51.442;11.936;2022-10-22T03:10:14;8.90;;;8.00;;
54735;SDS011;40632;51.442;11.936;2022-10-22T03:12:39;9.85;;;8.43;;
54735;SDS011;40632;51.442;11.936;2022-10-22T03:15:05;9.48;;;8.40;;
54735;SDS011;40632;51.442;11.936;2022-10-22T03:17:31;8.93;;;8.02;;
54735;SDS011;40632;51.442;11.936;2022-10-22T03:19:57;9.70;;;7.43;;
54735;SDS011;40632;51.442;11.936;2022-10-22T03:22:25;11.57;;;7.30;;
54735;SDS011;40632;51.442;11.936;2022-10-22T03:24:53;11.70;;;7.80;;
54735;SDS011;40632;51.442;11.936;2022-10-22T03:27:22;10.32;;;7.75;;
54735;SDS011;40632;51.442;11.936;2022-10-22T03:29:48;9.50;;;6.90;;
54735;SDS011;40632;51.442;11.936;2022-10-22T03:32:16;9.43;;;7.55;;
54735;SDS011;40632;51.442;11.936;2022-10-22T03:34:42;9.32;;;7.20;;
54735;SDS011;40632;51.442;11.936;2022-10-22T03:37:08;10.90;;;7.85;;
54735;SDS011;40632;51.442;11.936;2022-10-22T03:39:36;9.63;;;7.47;;
54735;SDS011;40632;51.442;11.936;2022-10-22T03:42:02;9.43;;;7.18;;
54735;SDS011;40632;51.442;11.936;2022-10-22T03:44:29;11.55;;;7.13;;
54735;SDS011;40632;51.442;11.936;2022-10-22T03:46:55;7.90;;;7.10;;
54735;SDS011;40632;51.442;11.936;2022-10-22T03:49:20;9.95;;;7.53;;
54735;SDS011;40632;51.442;11.936;2022-10-22T03:51:46;10.07;;;7.57;;
54735;SDS011;40632;51.442;11.936;2022-10-22T03:54:12;8.80;;;7.20;;
54735;SDS011;40632;51.442;11.936;2022-10-22T03:56:40;9.52;;;7.40;;
54735;SDS011;40632;51.442;11.936;2022-10-22T03:59:06;14.75;;;8.15;;
54735;SDS011;40632;51.442;11.936;2022-10-22T04:01:31;13.55;;;7.43;;
54735;SDS011;40632;51.442;11.936;2022-10-22T04:03:57;11.23;;;8.05;;
54735;SDS011;40632;51.442;11.936;2022-10-22T04:06:23;9.35;;;6.90;;
54735;SDS011;40632;51.442;11.936;2022-10-22T04:08:49;9.23;;;6.93;;
54735;SDS011;40632;51.442;11.936;2022-10-22T04:11:15;8.50;;;6.97;;
54735;SDS011;40632;51.442;11.936;2022-10-22T04:13:43;8.00;;;6.75;;
54735;SDS011;40632;51.442;11.936;2022-10-22T04:16:09;7.70;;;6.55;;
54735;SDS011;40632;51.442;11.936;2022-10-22T04:18:37;8.98;;;6.22;;
54735;SDS011;40632;51.442;11.936;2022-10-22T04:21:03;9.35;;;6.70;;
54735;SDS011;40632;51.442;11.936;2022-10-22T04:23:29;8.48;;;6.47;;
54735;SDS011;40632;51.442;11.936;2022-10-22T04:25:56;7.65;;;6.50;;
54735;SDS011;40632;51.442;11.936;2022-10-22T04:28:22;8.15;;;6.40;;
54735;SDS011;40632;51.442;11.936;2022-10-22T04:30:50;12.32;;;7.13;;
54735;SDS011;40632;51.442;11.936;2022-10-22T04:33:16;9.85;;;8.13;;
54735;SDS011;40632;51.442;11.936;2022-10-22T04:35:41;9.95;;;7.45;;
54735;SDS011;40632;51.442;11.936;2022-10-22T04:38:07;8.93;;;7.45;;
54735;SDS011;40632;51.442;11.936;2022-10-22T04:40:33;10.45;;;7.68;;
54735;SDS011;40632;51.442;11.936;2022-10-22T04:42:58;8.13;;;7.22;;
54735;SDS011;40632;51.442;11.936;2022-10-22T04:45:24;10.43;;;7.40;;
54735;SDS011;40632;51.442;11.936;2022-10-22T04:47:52;9.98;;;8.43;;
54735;SDS011;40632;51.442;11.936;2022-10-22T04:50:18;10.45;;;8.45;;
54735;SDS011;40632;51.442;11.936;2022-10-22T04:52:44;11.48;;;8.52;;
54735;SDS011;40632;51.442;11.936;2022-10-22T04:55:09;10.48;;;8.82;;
54735;SDS011;40632;51.442;11.936;2022-10-22T04:57:35;10.88;;;8.73;;
54735;SDS011;40632;51.442;11.936;2022-10-22T05:00:00;10.32;;;9.15;;
54735;SDS011;40632;51.442;11.936;2022-10-22T05:02:26;11.20;;;9.05;;
54735;SDS011;40632;51.442;11.936;2022-10-22T05:04:54;11.30;;;9.85;;
54735;SDS011;40632;51.442;11.936;2022-10-22T05:07:20;11.80;;;9.60;;
54735;SDS011;40632;51.442;11.936;2022-10-22T05:09:45;11.38;;;8.32;;
54735;SDS011;40632;51.442;11.936;2022-10-22T05:12:11;10.07;;;7.35;;
54735;SDS011;40632;51.442;11.936;2022-10-22T05:14:36;10.23;;;8.25;;
54735;SDS011;40632;51.442;11.936;2022-10-22T05:17:02;11.13;;;8.60;;
54735;SDS011;40632;51.442;11.936;2022-10-22T05:19:28;11.57;;;9.90;;
54735;SDS011;40632;51.442;11.936;2022-10-22T05:21:58;10.25;;;9.25;;
54735;SDS011;40632;51.442;11.936;2022-10-22T05:24:25;12.32;;;10.90;;
54735;SDS011;40632;51.442;11.936;2022-10-22T05:26:53;15.90;;;11.57;;
54735;SDS011;40632;51.442;11.936;2022-10-22T05:29:20;13.93;;;11.75;;
54735;SDS011;40632;51.442;11.936;2022-10-22T05:31:47;13.48;;;11.27;;
54735;SDS011;40632;51.442;11.936;2022-10-22T05:34:13;14.27;;;10.15;;
54735;SDS011;40632;51.442;11.936;2022-10-22T05:36:38;16.80;;;11.70;;
54735;SDS011;40632;51.442;11.936;2022-10-22T05:39:07;19.98;;;13.70;;
54735;SDS011;40632;51.442;11.936;2022-10-22T05:41:33;15.38;;;12.13;;
54735;SDS011;40632;51.442;11.936;2022-10-22T05:43:59;16.38;;;13.07;;
54735;SDS011;40632;51.442;11.936;2022-10-22T05:46:25;18.27;;;13.23;;
54735;SDS011;40632;51.442;11.936;2022-10-22T05:48:53;18.35;;;14.35;;
54735;SDS011;40632;51.442;11.936;2022-10-22T05:51:20;18.13;;;13.60;;
54735;SDS011;40632;51.442;11.936;2022-10-22T05:53:49;16.50;;;13.35;;
54735;SDS011;40632;51.442;11.936;2022-10-22T05:56:19;15.52;;;13.35;;
54735;SDS011;40632;51.442;11.936;2022-10-22T05:58:45;16.33;;;12.65;;
54735;SDS011;40632;51.442;11.936;2022-10-22T06:01:11;16.38;;;12.95;;
54735;SDS011;40632;51.442;11.936;2022-10-22T06:03:38;16.23;;;13.52;;
54735;SDS011;40632;51.442;11.936;2022-10-22T06:06:04;16.00;;;13.95;;
54735;SDS011;40632;51.442;11.936;2022-10-22T06:08:36;15.90;;;13.20;;
54735;SDS011;40632;51.442;11.936;2022-10-22T06:11:02;13.68;;;12.27;;
54735;SDS011;40632;51.442;11.936;2022-10-22T06:13:30;15.60;;;12.75;;
54735;SDS011;40632;51.442;11.936;2022-10-22T06:15:55;15.68;;;13.30;;
54735;SDS011;40632;51.442;11.936;2022-10-22T06:18:21;17.52;;;12.30;;
54735;SDS011;40632;51.442;11.936;2022-10-22T06:20:47;13.63;;;12.20;;
54735;SDS011;40632;51.442;11.936;2022-10-22T06:23:12;16.27;;;11.90;;
54735;SDS011;40632;51.442;11.936;2022-10-22T06:25:38;13.65;;;11.32;;
54735;SDS011;40632;51.442;11.936;2022-10-22T06:28:03;13.07;;;11.25;;
54735;SDS011;40632;51.442;11.936;2022-10-22T06:30:32;14.02;;;12.00;;
54735;SDS011;40632;51.442;11.936;2022-10-22T06:32:57;14.43;;;12.40;;
54735;SDS011;40632;51.442;11.936;2022-10-22T06:35:23;14.20;;;10.60;;
54735;SDS011;40632;51.442;11.936;2022-10-22T06:37:48;19.33;;;14.45;;
54735;SDS011;40632;51.442;11.936;2022-10-22T06:40:14;15.23;;;12.70;;
54735;SDS011;40632;51.442;11.936;2022-10-22T06:42:39;17.13;;;10.13;;
54735;SDS011;40632;51.442;11.936;2022-10-22T06:45:06;15.27;;;9.52;;
54735;SDS011;40632;51.442;11.936;2022-10-22T06:47:35;10.43;;;9.05;;
54735;SDS011;40632;51.442;11.936;2022-10-22T06:50:01;16.48;;;9.68;;
54735;SDS011;40632;51.442;11.936;2022-10-22T06:52:26;12.45;;;9.13;;
54735;SDS011;40632;51.442;11.936;2022-10-22T06:54:52;12.75;;;10.10;;
54735;SDS011;40632;51.442;11.936;2022-10-22T06:57:17;12.50;;;8.95;;
54735;SDS011;40632;51.442;11.936;2022-10-22T06:59:43;10.98;;;8.73;;
54735;SDS011;40632;51.442;11.936;2022-10-22T07:02:10;12.80;;;8.90;;
54735;SDS011;40632;51.442;11.936;2022-10-22T07:04:38;10.20;;;9.18;;
54735;SDS011;40632;51.442;11.936;2022-10-22T07:07:07;12.93;;;8.88;;
54735;SDS011;40632;51.442;11.936;2022-10-22T07:09:32;11.60;;;9.20;;
54735;SDS011;40632;51.442;11.936;2022-10-22T07:11:58;10.77;;;8.93;;
54735;SDS011;40632;51.442;11.936;2022-10-22T07:14:23;9.70;;;8.70;;
54735;SDS011;40632;51.442;11.936;2022-10-22T07:16:49;10.13;;;9.07;;
54735;SDS011;40632;51.442;11.936;2022-10-22T07:19:14;13.30;;;8.80;;
54735;SDS011;40632;51.442;11.936;2022-10-22T07:21:43;15.48;;;9.23;;
54735;SDS011;40632;51.442;11.936;2022-10-22T07:24:08;9.88;;;8.30;;
54735;SDS011;40632;51.442;11.936;2022-10-22T07:26:34;10.90;;;7.93;;
54735;SDS011;40632;51.442;11.936;2022-10-22T07:28:59;10.55;;;7.97;;
54735;SDS011;40632;51.442;11.936;2022-10-22T07:31:25;10.73;;;7.47;;
54735;SDS011;40632;51.442;11.936;2022-10-22T07:33:51;11.40;;;8.52;;
54735;SDS011;40632;51.442;11.936;2022-10-22T07:36:17;12.82;;;9.23;;
54735;SDS011;40632;51.442;11.936;2022-10-22T07:38:46;14.10;;;9.18;;
54735;SDS011;40632;51.442;11.936;2022-10-22T07:41:13;11.25;;;8.52;;
54735;SDS011;40632;51.442;11.936;2022-10-22T07:43:39;11.60;;;7.95;;
54735;SDS011;40632;51.442;11.936;2022-10-22T07:46:05;13.30;;;8.18;;
54735;SDS011;40632;51.442;11.936;2022-10-22T07:48:30;9.93;;;8.38;;
54735;SDS011;40632;51.442;11.936;2022-10-22T07:50:56;11.77;;;8.63;;
54735;SDS011;40632;51.442;11.936;2022-10-22T07:53:21;12.45;;;8.52;;
54735;SDS011;40632;51.442;11.936;2022-10-22T07:55:50;19.50;;;13.65;;
54735;SDS011;40632;51.442;11.936;2022-10-22T07:58:16;13.82;;;9.10;;
54735;SDS011;40632;51.442;11.936;2022-10-22T08:00:42;10.88;;;8.65;;
54735;SDS011;40632;51.442;11.936;2022-10-22T08:03:08;12.02;;;7.03;;
54735;SDS011;40632;51.442;11.936;2022-10-22T08:05:35;13.20;;;7.60;;
54735;SDS011;40632;51.442;11.936;2022-10-22T08:08:01;11.48;;;7.38;;
54735;SDS011;40632;51.442;11.936;2022-10-22T08:10:27;8.15;;;6.43;;
54735;SDS011;40632;51.442;11.936;2022-10-22T08:12:55;11.38;;;6.18;;
54735;SDS011;40632;51.442;11.936;2022-10-22T08:15:21;8.13;;;6.60;;
54735;SDS011;40632;51.442;11.936;2022-10-22T08:17:47;9.15;;;5.88;;
54735;SDS011;40632;51.442;11.936;2022-10-22T08:20:12;12.50;;;7.22;;
54735;SDS011;40632;51.442;11.936;2022-10-22T08:22:38;6.55;;;4.75;;
54735;SDS011;40632;51.442;11.936;2022-10-22T08:25:04;9.60;;;4.55;;
54735;SDS011;40632;51.442;11.936;2022-10-22T08:27:30;8.30;;;5.13;;
54735;SDS011;40632;51.442;11.936;2022-10-22T08:29:58;5.68;;;4.60;;
54735;SDS011;40632;51.442;11.936;2022-10-22T08:32:24;9.52;;;4.50;;
54735;SDS011;40632;51.442;11.936;2022-10-22T08:34:49;7.05;;;4.72;;
54735;SDS011;40632;51.442;11.936;2022-10-22T08:37:15;11.50;;;4.32;;
54735;SDS011;40632;51.442;11.936;2022-10-22T08:39:41;7.25;;;3.90;;
54735;SDS011;40632;51.442;11.936;2022-10-22T08:42:13;5.80;;;4.03;;
54735;SDS011;40632;51.442;11.936;2022-10-22T08:45:00;4.80;;;4.00;;
54735;SDS011;40632;51.442;11.936;2022-10-22T08:47:39;6.85;;;3.72;;
54735;SDS011;40632;51.442;11.936;2022-10-22T08:50:22;7.40;;;3.75;;
54735;SDS011;40632;51.442;11.936;2022-10-22T08:52:55;6.88;;;3.45;;
54735;SDS011;40632;51.442;11.936;2022-10-22T08:55:23;5.80;;;3.03;;
54735;SDS011;40632;51.442;11.936;2022-10-22T08:57:51;5.43;;;3.10;;
54735;SDS011;40632;51.442;11.936;2022-10-22T09:00:27;6.95;;;3.13;;
54735;SDS011;40632;51.442;11.936;2022-10-22T09:03:01;9.98;;;3.25;;
54735;SDS011;40632;51.442;11.936;2022-10-22T09:05:45;3.42;;;2.35;;
54735;SDS011;40632;51.442;11.936;2022-10-22T09:08:20;4.95;;;2.70;;
54735;SDS011;40632;51.442;11.936;2022-10-22T09:10:47;7.60;;;2.92;;
54735;SDS011;40632;51.442;11.936;2022-10-22T09:13:17;7.13;;;2.80;;
54735;SDS011;40632;51.442;11.936;2022-10-22T09:15:48;3.58;;;2.08;;
54735;SDS011;40632;51.442;11.936;2022-10-22T09:18:21;4.97;;;2.20;;
54735;SDS011;40632;51.442;11.936;2022-10-22T09:20:55;6.38;;;2.72;;
54735;SDS011;40632;51.442;11.936;2022-10-22T09:23:28;7.22;;;2.50;;
54735;SDS011;40632;51.442;11.936;2022-10-22T09:25:59;4.80;;;2.35;;
54735;SDS011;40632;51.442;11.936;2022-10-22T09:28:26;2.85;;;1.60;;
54735;SDS011;40632;51.442;11.936;2022-10-22T09:30:54;2.85;;;1.10;;
54735;SDS011;40632;51.442;11.936;2022-10-22T09:33:21;3.35;;;1.70;;
54735;SDS011;40632;51.442;11.936;2022-10-22T09:35:50;2.42;;;1.33;;
54735;SDS011;40632;51.442;11.936;2022-10-22T09:38:18;3.50;;;1.20;;
54735;SDS011;40632;51.442;11.936;2022-10-22T09:40:45;5.28;;;1.23;;
54735;SDS011;40632;51.442;11.936;2022-10-22T09:43:12;3.45;;;1.15;;
54735;SDS011;40632;51.442;11.936;2022-10-22T09:45:38;5.13;;;1.17;;
54735;SDS011;40632;51.442;11.936;2022-10-22T09:48:13;6.13;;;1.38;;
54735;SDS011;40632;51.442;11.936;2022-10-22T09:50:45;7.18;;;1.45;;
54735;SDS011;40632;51.442;11.936;2022-10-22T09:53:12;3.95;;;1.40;;
54735;SDS011;40632;51.442;11.936;2022-10-22T09:55:42;7.15;;;2.58;;
54735;SDS011;40632;51.442;11.936;2022-10-22T09:58:08;7.10;;;2.88;;
54735;SDS011;40632;51.442;11.936;2022-10-22T10:00:37;6.43;;;1.95;;
54735;SDS011;40632;51.442;11.936;2022-10-22T10:03:03;5.65;;;1.42;;
54735;SDS011;40632;51.442;11.936;2022-10-22T10:05:33;3.35;;;1.10;;
54735;SDS011;40632;51.442;11.936;2022-10-22T10:08:00;3.35;;;1.02;;
54735;SDS011;40632;51.442;11.936;2022-10-22T10:10:41;5.22;;;1.80;;
54735;SDS011;40632;51.442;11.936;2022-10-22T10:13:16;4.45;;;1.02;;
54735;SDS011;40632;51.442;11.936;2022-10-22T10:16:02;4.97;;;1.00;;
54735;SDS011;40632;51.442;11.936;2022-10-22T10:18:39;2.78;;;0.90;;
54735;SDS011;40632;51.442;11.936;2022-10-22T10:21:21;4.03;;;1.05;;
54735;SDS011;40632;51.442;11.936;2022-10-22T10:23:54;4.10;;;1.23;;
54735;SDS011;40632;51.442;11.936;2022-10-22T10:26:29;3.67;;;1.10;;
54735;SDS011;40632;51.442;11.936;2022-10-22T10:31:48;6.10;;;1.20;;
54735;SDS011;40632;51.442;11.936;2022-10-22T10:34:29;1.55;;;0.98;;
54735;SDS011;40632;51.442;11.936;2022-10-22T10:37:13;4.90;;;0.90;;
54735;SDS011;40632;51.442;11.936;2022-10-22T10:39:48;3.95;;;1.23;;
54735;SDS011;40632;51.442;11.936;2022-10-22T10:42:26;3.13;;;1.20;;
54735;SDS011;40632;51.442;11.936;2022-10-22T10:45:02;3.03;;;1.10;;
54735;SDS011;40632;51.442;11.936;2022-10-22T10:47:45;3.85;;;0.85;;
54735;SDS011;40632;51.442;11.936;2022-10-22T10:50:31;3.47;;;1.00;;
54735;SDS011;40632;51.442;11.936;2022-10-22T10:53:09;2.63;;;0.90;;
54735;SDS011;40632;51.442;11.936;2022-10-22T10:55:45;1.73;;;1.05;;
54735;SDS011;40632;51.442;11.936;2022-10-22T10:58:23;2.40;;;1.40;;
54735;SDS011;40632;51.442;11.936;2022-10-22T11:00:56;4.03;;;1.20;;
54735;SDS011;40632;51.442;11.936;2022-10-22T11:03:31;1.67;;;1.05;;
54735;SDS011;40632;51.442;11.936;2022-10-22T11:06:10;5.50;;;1.48;;
54735;SDS011;40632;51.442;11.936;2022-10-22T11:08:41;1.52;;;1.10;;
54735;SDS011;40632;51.442;11.936;2022-10-22T11:11:11;3.40;;;1.42;;
54735;SDS011;40632;51.442;11.936;2022-10-22T11:13:43;2.47;;;0.85;;
54735;SDS011;40632;51.442;11.936;2022-10-22T11:16:18;3.00;;;1.20;;
54735;SDS011;40632;51.442;11.936;2022-10-22T11:18:48;2.22;;;0.85;;
54735;SDS011;40632;51.442;11.936;2022-10-22T11:21:21;1.67;;;0.60;;
54735;SDS011;40632;51.442;11.936;2022-10-22T11:23:53;2.25;;;0.70;;
54735;SDS011;40632;51.442;11.936;2022-10-22T11:26:33;1.60;;;0.73;;
54735;SDS011;40632;51.442;11.936;2022-10-22T11:29:03;2.78;;;0.90;;
54735;SDS011;40632;51.442;11.936;2022-10-22T11:31:33;1.98;;;0.82;;
54735;SDS011;40632;51.442;11.936;2022-10-22T11:34:03;1.85;;;0.88;;
54735;SDS011;40632;51.442;11.936;2022-10-22T11:36:30;3.33;;;0.98;;
54735;SDS011;40632;51.442;11.936;2022-10-22T11:39:00;2.28;;;0.80;;
54735;SDS011;40632;51.442;11.936;2022-10-22T11:41:27;5.60;;;0.80;;
54735;SDS011;40632;51.442;11.936;2022-10-22T11:43:57;4.60;;;0.93;;
54735;SDS011;40632;51.442;11.936;2022-10-22T11:46:45;3.95;;;0.80;;
54735;SDS011;40632;51.442;11.936;2022-10-22T11:49:21;2.85;;;0.82;;
54735;SDS011;40632;51.442;11.936;2022-10-22T11:51:48;1.30;;;0.70;;
54735;SDS011;40632;51.442;11.936;2022-10-22T11:54:37;5.68;;;0.80;;
54735;SDS011;40632;51.442;11.936;2022-10-22T11:57:14;2.83;;;0.90;;
54735;SDS011;40632;51.442;11.936;2022-10-22T11:59:46;4.00;;;1.10;;
54735;SDS011;40632;51.442;11.936;2022-10-22T12:07:48;3.75;;;1.10;;
54735;SDS011;40632;51.442;11.936;2022-10-22T12:10:20;2.70;;;1.05;;
54735;SDS011;40632;51.442;11.936;2022-10-22T12:12:51;6.72;;;1.20;;
54735;SDS011;40632;51.442;11.936;2022-10-22T12:15:22;2.10;;;0.88;;
54735;SDS011;40632;51.442;11.936;2022-10-22T12:17:55;6.10;;;1.10;;
54735;SDS011;40632;51.442;11.936;2022-10-22T12:20:23;1.90;;;0.93;;
54735;SDS011;40632;51.442;11.936;2022-10-22T12:22:50;4.32;;;1.00;;
54735;SDS011;40632;51.442;11.936;2022-10-22T12:25:21;3.50;;;1.10;;
54735;SDS011;40632;51.442;11.936;2022-10-22T12:27:49;5.60;;;1.10;;
54735;SDS011;40632;51.442;11.936;2022-10-22T12:30:17;3.22;;;0.90;;
54735;SDS011;40632;51.442;11.936;2022-10-22T12:32:44;5.32;;;1.15;;
54735;SDS011;40632;51.442;11.936;2022-10-22T12:35:14;4.85;;;1.10;;
54735;SDS011;40632;51.442;11.936;2022-10-22T12:37:41;3.67;;;1.35;;
54735;SDS011;40632;51.442;11.936;2022-10-22T12:40:14;6.70;;;1.20;;
54735;SDS011;40632;51.442;11.936;2022-10-22T12:42:48;2.70;;;1.00;;
54735;SDS011;40632;51.442;11.936;2022-10-22T12:45:15;4.22;;;1.13;;
54735;SDS011;40632;51.442;11.936;2022-10-22T12:47:43;3.40;;;1.30;;
54735;SDS011;40632;51.442;11.936;2022-10-22T12:50:13;2.67;;;1.15;;
54735;SDS011;40632;51.442;11.936;2022-10-22T12:52:41;3.33;;;1.17;;
54735;SDS011;40632;51.442;11.936;2022-10-22T12:55:07;1.65;;;1.10;;
54735;SDS011;40632;51.442;11.936;2022-10-22T12:57:33;2.67;;;1.17;;
54735;SDS011;40632;51.442;11.936;2022-10-22T13:00:02;3.97;;;1.50;;
54735;SDS011;40632;51.442;11.936;2022-10-22T13:02:28;7.45;;;1.65;;
54735;SDS011;40632;51.442;11.936;2022-10-22T13:05:09;2.45;;;1.35;;
54735;SDS011;40632;51.442;11.936;2022-10-22T13:07:41;3.33;;;1.15;;
54735;SDS011;40632;51.442;11.936;2022-10-22T13:10:14;3.85;;;1.40;;
54735;SDS011;40632;51.442;11.936;2022-10-22T13:12:43;3.17;;;1.10;;
54735;SDS011;40632;51.442;11.936;2022-10-22T13:15:21;2.15;;;1.23;;
54735;SDS011;40632;51.442;11.936;2022-10-22T13:18:02;3.28;;;1.10;;
54735;SDS011;40632;51.442;11.936;2022-10-22T13:20:30;4.95;;;1.20;;
54735;SDS011;40632;51.442;11.936;2022-10-22T13:22:57;2.95;;;1.10;;
54735;SDS011;40632;51.442;11.936;2022-10-22T13:25:24;4.25;;;1.60;;
54735;SDS011;40632;51.442;11.936;2022-10-22T13:27:52;2.78;;;1.40;;
54735;SDS011;40632;51.442;11.936;2022-10-22T13:30:23;5.22;;;1.90;;
54735;SDS011;40632;51.442;11.936;2022-10-22T13:32:51;4.93;;;1.48;;
54735;SDS011;40632;51.442;11.936;2022-10-22T13:35:19;5.28;;;1.23;;
54735;SDS011;40632;51.442;11.936;2022-10-22T13:37:47;3.63;;;1.95;;
54735;SDS011;40632;51.442;11.936;2022-10-22T13:40:13;7.65;;;1.60;;
54735;SDS011;40632;51.442;11.936;2022-10-22T13:42:39;3.25;;;1.50;;
54735;SDS011;40632;51.442;11.936;2022-10-22T13:45:05;3.85;;;1.95;;
54735;SDS011;40632;51.442;11.936;2022-10-22T13:47:34;3.63;;;1.60;;
54735;SDS011;40632;51.442;11.936;2022-10-22T13:50:00;4.40;;;1.30;;
54735;SDS011;40632;51.442;11.936;2022-10-22T13:52:30;6.55;;;1.67;;
54735;SDS011;40632;51.442;11.936;2022-10-22T13:54:59;4.70;;;1.60;;
54735;SDS011;40632;51.442;11.936;2022-10-22T13:57:25;4.75;;;1.75;;
54735;SDS011;40632;51.442;11.936;2022-10-22T13:59:51;5.70;;;2.10;;
54735;SDS011;40632;51.442;11.936;2022-10-22T14:02:16;4.63;;;1.90;;
54735;SDS011;40632;51.442;11.936;2022-10-22T14:04:45;5.93;;;1.70;;
54735;SDS011;40632;51.442;11.936;2022-10-22T14:07:12;6.22;;;1.95;;
54735;SDS011;40632;51.442;11.936;2022-10-22T14:09:37;5.53;;;1.90;;
54735;SDS011;40632;51.442;11.936;2022-10-22T14:12:07;4.03;;;1.70;;
54735;SDS011;40632;51.442;11.936;2022-10-22T14:14:35;4.35;;;1.45;;
54735;SDS011;40632;51.442;11.936;2022-10-22T14:17:01;3.55;;;1.58;;
54735;SDS011;40632;51.442;11.936;2022-10-22T14:19:26;3.67;;;1.80;;
54735;SDS011;40632;51.442;11.936;2022-10-22T14:21:55;5.25;;;2.00;;
54735;SDS011;40632;51.442;11.936;2022-10-22T14:24:21;3.85;;;1.65;;
54735;SDS011;40632;51.442;11.936;2022-10-22T14:26:46;3.75;;;2.10;;
54735;SDS011;40632;51.442;11.936;2022-10-22T14:29:12;4.63;;;2.15;;
54735;SDS011;40632;51.442;11.936;2022-10-22T14:31:38;5.90;;;1.92;;
54735;SDS011;40632;51.442;11.936;2022-10-22T14:34:05;5.97;;;2.45;;
54735;SDS011;40632;51.442;11.936;2022-10-22T14:36:31;5.88;;;2.60;;
54735;SDS011;40632;51.442;11.936;2022-10-22T14:38:59;4.43;;;1.88;;
54735;SDS011;40632;51.442;11.936;2022-10-22T14:41:24;6.03;;;1.40;;
54735;SDS011;40632;51.442;11.936;2022-10-22T14:43:52;5.30;;;1.55;;
54735;SDS011;40632;51.442;11.936;2022-10-22T14:46:18;7.32;;;2.03;;
54735;SDS011;40632;51.442;11.936;2022-10-22T14:48:44;6.57;;;1.98;;
54735;SDS011;40632;51.442;11.936;2022-10-22T14:51:10;7.43;;;1.80;;